YAT weather

Attawapiskat Airport
Attawapiskat, Ontario, Canada

Public forecast

Using degrees Celsius for public forecast. Weather courtesy of forecast.io.

METAR (pilot weather report)

Retrieved 2019/03/22 07:35 UTC (11 minutes ago):

CYAT 220735Z AUTO 35011G21KT 9SM -SN OVC016 M13/M16 A3006 RMK SLP181

TAF (pilot weather forecast)

Forecast is more than 12 hours old.

Retrieved 2019/03/21 15:00 UTC (17 hours ago):

TAF CYAT 211439Z 2115/2119 23012G22KT 2SM -SN BKN015 OVC040 TEMPO 2115/2119 6SM -SN SCT015 OVC040 BECMG 2116/2118 33015G25KT RMK FCST BASED ON AUTO OBS. NXT FCST WILL BE ISSUED AT 220845Z